sensor_id;sensor_type;location;lat;lon;timestamp;P1;durP1;ratioP1;P2;durP2;ratioP2
58470;SDS011;44258;51.288;12.068;2023-05-02T00:01:29;13.02;;;6.60;;
58470;SDS011;44258;51.288;12.068;2023-05-02T00:03:56;11.68;;;6.20;;
58470;SDS011;44258;51.288;12.068;2023-05-02T00:06:23;11.68;;;5.97;;
58470;SDS011;44258;51.288;12.068;2023-05-02T00:08:50;10.52;;;5.78;;
58470;SDS011;44258;51.288;12.068;2023-05-02T00:11:24;11.25;;;6.20;;
58470;SDS011;44258;51.288;12.068;2023-05-02T00:13:51;11.15;;;5.90;;
58470;SDS011;44258;51.288;12.068;2023-05-02T00:16:18;10.48;;;6.18;;
58470;SDS011;44258;51.288;12.068;2023-05-02T00:18:49;13.70;;;6.55;;
58470;SDS011;44258;51.288;12.068;2023-05-02T00:21:17;10.95;;;6.55;;
58470;SDS011;44258;51.288;12.068;2023-05-02T00:23:44;11.70;;;6.22;;
58470;SDS011;44258;51.288;12.068;2023-05-02T00:26:11;12.55;;;6.60;;
58470;SDS011;44258;51.288;12.068;2023-05-02T00:28:37;11.85;;;6.22;;
58470;SDS011;44258;51.288;12.068;2023-05-02T00:31:05;11.80;;;6.25;;
58470;SDS011;44258;51.288;12.068;2023-05-02T00:33:32;11.30;;;6.38;;
58470;SDS011;44258;51.288;12.068;2023-05-02T00:36:00;12.48;;;6.32;;
58470;SDS011;44258;51.288;12.068;2023-05-02T00:38:27;11.48;;;6.38;;
58470;SDS011;44258;51.288;12.068;2023-05-02T00:40:54;11.07;;;6.18;;
58470;SDS011;44258;51.288;12.068;2023-05-02T00:43:21;12.65;;;6.50;;
58470;SDS011;44258;51.288;12.068;2023-05-02T00:45:47;13.55;;;6.88;;
58470;SDS011;44258;51.288;12.068;2023-05-02T00:48:14;13.57;;;6.50;;
58470;SDS011;44258;51.288;12.068;2023-05-02T00:50:42;11.50;;;6.78;;
58470;SDS011;44258;51.288;12.068;2023-05-02T00:53:13;13.40;;;6.38;;
58470;SDS011;44258;51.288;12.068;2023-05-02T00:55:40;13.30;;;7.20;;
58470;SDS011;44258;51.288;12.068;2023-05-02T00:58:07;12.35;;;6.55;;
58470;SDS011;44258;51.288;12.068;2023-05-02T01:00:43;11.23;;;6.65;;
58470;SDS011;44258;51.288;12.068;2023-05-02T01:03:22;13.38;;;7.20;;
58470;SDS011;44258;51.288;12.068;2023-05-02T01:05:58;12.75;;;6.88;;
58470;SDS011;44258;51.288;12.068;2023-05-02T01:08:35;11.52;;;6.28;;
58470;SDS011;44258;51.288;12.068;2023-05-02T01:11:12;11.43;;;6.65;;
58470;SDS011;44258;51.288;12.068;2023-05-02T01:13:41;11.57;;;6.55;;
58470;SDS011;44258;51.288;12.068;2023-05-02T01:16:10;12.30;;;7.05;;
58470;SDS011;44258;51.288;12.068;2023-05-02T01:18:41;12.63;;;6.90;;
58470;SDS011;44258;51.288;12.068;2023-05-02T01:21:10;11.48;;;6.90;;
58470;SDS011;44258;51.288;12.068;2023-05-02T01:23:40;12.15;;;6.85;;
58470;SDS011;44258;51.288;12.068;2023-05-02T01:26:16;10.65;;;6.47;;
58470;SDS011;44258;51.288;12.068;2023-05-02T01:28:57;12.18;;;6.80;;
58470;SDS011;44258;51.288;12.068;2023-05-02T01:33:52;12.63;;;6.85;;
58470;SDS011;44258;51.288;12.068;2023-05-02T01:36:21;12.05;;;6.80;;
58470;SDS011;44258;51.288;12.068;2023-05-02T01:38:51;12.00;;;6.45;;
58470;SDS011;44258;51.288;12.068;2023-05-02T01:41:19;12.20;;;6.47;;
58470;SDS011;44258;51.288;12.068;2023-05-02T01:43:47;12.32;;;6.85;;
58470;SDS011;44258;51.288;12.068;2023-05-02T01:46:16;13.35;;;7.00;;
58470;SDS011;44258;51.288;12.068;2023-05-02T01:48:47;14.38;;;6.90;;
58470;SDS011;44258;51.288;12.068;2023-05-02T01:51:17;13.70;;;6.40;;
58470;SDS011;44258;51.288;12.068;2023-05-02T01:53:48;10.77;;;6.05;;
58470;SDS011;44258;51.288;12.068;2023-05-02T01:56:16;12.40;;;6.78;;
58470;SDS011;44258;51.288;12.068;2023-05-02T01:58:44;12.68;;;6.72;;
58470;SDS011;44258;51.288;12.068;2023-05-02T02:01:13;11.55;;;6.68;;
58470;SDS011;44258;51.288;12.068;2023-05-02T02:03:42;12.38;;;6.88;;
58470;SDS011;44258;51.288;12.068;2023-05-02T02:06:12;12.18;;;6.47;;
58470;SDS011;44258;51.288;12.068;2023-05-02T02:08:40;11.95;;;6.97;;
58470;SDS011;44258;51.288;12.068;2023-05-02T02:11:08;13.32;;;6.78;;
58470;SDS011;44258;51.288;12.068;2023-05-02T02:13:38;11.48;;;6.57;;
58470;SDS011;44258;51.288;12.068;2023-05-02T02:16:12;12.98;;;6.65;;
58470;SDS011;44258;51.288;12.068;2023-05-02T02:18:50;12.85;;;6.85;;
58470;SDS011;44258;51.288;12.068;2023-05-02T02:21:21;11.20;;;6.57;;
58470;SDS011;44258;51.288;12.068;2023-05-02T02:23:50;12.50;;;6.50;;
58470;SDS011;44258;51.288;12.068;2023-05-02T02:26:23;11.20;;;6.13;;
58470;SDS011;44258;51.288;12.068;2023-05-02T02:28:49;13.55;;;6.20;;
58470;SDS011;44258;51.288;12.068;2023-05-02T02:31:16;12.27;;;6.43;;
58470;SDS011;44258;51.288;12.068;2023-05-02T02:33:42;11.80;;;6.07;;
58470;SDS011;44258;51.288;12.068;2023-05-02T02:36:17;12.00;;;6.43;;
58470;SDS011;44258;51.288;12.068;2023-05-02T02:38:53;12.00;;;6.05;;
58470;SDS011;44258;51.288;12.068;2023-05-02T02:41:32;11.02;;;6.00;;
58470;SDS011;44258;51.288;12.068;2023-05-02T02:44:12;11.50;;;5.85;;
58470;SDS011;44258;51.288;12.068;2023-05-02T02:46:55;12.50;;;5.65;;
58470;SDS011;44258;51.288;12.068;2023-05-02T02:49:34;11.32;;;6.00;;
58470;SDS011;44258;51.288;12.068;2023-05-02T02:52:13;12.27;;;5.85;;
58470;SDS011;44258;51.288;12.068;2023-05-02T02:54:50;12.15;;;5.40;;
58470;SDS011;44258;51.288;12.068;2023-05-02T02:57:23;11.57;;;5.35;;
58470;SDS011;44258;51.288;12.068;2023-05-02T02:59:57;9.95;;;5.38;;
58470;SDS011;44258;51.288;12.068;2023-05-02T03:02:30;10.90;;;5.35;;
58470;SDS011;44258;51.288;12.068;2023-05-02T03:04:59;11.18;;;5.53;;
58470;SDS011;44258;51.288;12.068;2023-05-02T03:07:32;10.88;;;5.10;;
58470;SDS011;44258;51.288;12.068;2023-05-02T03:10:01;13.05;;;5.32;;
58470;SDS011;44258;51.288;12.068;2023-05-02T03:12:29;13.52;;;5.93;;
58470;SDS011;44258;51.288;12.068;2023-05-02T03:14:56;12.38;;;5.30;;
58470;SDS011;44258;51.288;12.068;2023-05-02T03:17:32;12.90;;;5.40;;
58470;SDS011;44258;51.288;12.068;2023-05-02T03:19:58;11.98;;;5.47;;
58470;SDS011;44258;51.288;12.068;2023-05-02T03:22:29;10.95;;;5.65;;
58470;SDS011;44258;51.288;12.068;2023-05-02T03:24:57;11.23;;;6.00;;
58470;SDS011;44258;51.288;12.068;2023-05-02T03:27:24;12.93;;;5.75;;
58470;SDS011;44258;51.288;12.068;2023-05-02T03:29:50;11.13;;;5.15;;
58470;SDS011;44258;51.288;12.068;2023-05-02T03:32:17;10.65;;;5.03;;
58470;SDS011;44258;51.288;12.068;2023-05-02T03:34:44;10.68;;;5.72;;
58470;SDS011;44258;51.288;12.068;2023-05-02T03:37:11;11.80;;;6.05;;
58470;SDS011;44258;51.288;12.068;2023-05-02T03:39:38;13.50;;;5.72;;
58470;SDS011;44258;51.288;12.068;2023-05-02T03:42:05;11.15;;;6.00;;
58470;SDS011;44258;51.288;12.068;2023-05-02T03:44:34;12.20;;;5.95;;
58470;SDS011;44258;51.288;12.068;2023-05-02T03:47:01;15.27;;;6.90;;
58470;SDS011;44258;51.288;12.068;2023-05-02T03:49:28;14.63;;;6.75;;
58470;SDS011;44258;51.288;12.068;2023-05-02T03:51:54;12.70;;;6.72;;
58470;SDS011;44258;51.288;12.068;2023-05-02T03:54:21;12.90;;;6.72;;
58470;SDS011;44258;51.288;12.068;2023-05-02T03:56:48;13.77;;;6.13;;
58470;SDS011;44258;51.288;12.068;2023-05-02T03:59:16;11.10;;;5.28;;
58470;SDS011;44258;51.288;12.068;2023-05-02T04:01:42;11.70;;;5.28;;
58470;SDS011;44258;51.288;12.068;2023-05-02T04:04:09;12.75;;;5.10;;
58470;SDS011;44258;51.288;12.068;2023-05-02T04:06:36;11.98;;;5.47;;
58470;SDS011;44258;51.288;12.068;2023-05-02T04:09:04;11.25;;;5.00;;
58470;SDS011;44258;51.288;12.068;2023-05-02T04:11:31;11.32;;;5.00;;
58470;SDS011;44258;51.288;12.068;2023-05-02T04:13:58;10.68;;;4.57;;
58470;SDS011;44258;51.288;12.068;2023-05-02T04:16:26;13.50;;;4.88;;
58470;SDS011;44258;51.288;12.068;2023-05-02T04:18:53;10.40;;;4.95;;
58470;SDS011;44258;51.288;12.068;2023-05-02T04:21:20;12.15;;;5.13;;
58470;SDS011;44258;51.288;12.068;2023-05-02T04:23:47;12.20;;;5.10;;
58470;SDS011;44258;51.288;12.068;2023-05-02T04:26:13;11.48;;;5.38;;
58470;SDS011;44258;51.288;12.068;2023-05-02T04:28:40;13.48;;;5.97;;
58470;SDS011;44258;51.288;12.068;2023-05-02T04:31:07;12.63;;;6.15;;
58470;SDS011;44258;51.288;12.068;2023-05-02T04:33:36;12.02;;;5.82;;
58470;SDS011;44258;51.288;12.068;2023-05-02T04:36:02;11.40;;;5.85;;
58470;SDS011;44258;51.288;12.068;2023-05-02T04:38:29;15.30;;;6.50;;
58470;SDS011;44258;51.288;12.068;2023-05-02T04:40:56;12.88;;;6.60;;
58470;SDS011;44258;51.288;12.068;2023-05-02T04:43:22;12.55;;;6.22;;
58470;SDS011;44258;51.288;12.068;2023-05-02T04:45:49;12.10;;;5.88;;
58470;SDS011;44258;51.288;12.068;2023-05-02T04:48:16;11.45;;;5.78;;
58470;SDS011;44258;51.288;12.068;2023-05-02T04:50:46;12.52;;;5.90;;
58470;SDS011;44258;51.288;12.068;2023-05-02T04:53:14;12.50;;;5.90;;
58470;SDS011;44258;51.288;12.068;2023-05-02T04:55:41;11.35;;;4.97;;
58470;SDS011;44258;51.288;12.068;2023-05-02T04:58:08;10.43;;;5.13;;
58470;SDS011;44258;51.288;12.068;2023-05-02T05:00:34;8.95;;;4.63;;
58470;SDS011;44258;51.288;12.068;2023-05-02T05:03:01;10.65;;;4.60;;
58470;SDS011;44258;51.288;12.068;2023-05-02T05:05:28;12.38;;;4.68;;
58470;SDS011;44258;51.288;12.068;2023-05-02T05:07:56;10.15;;;4.85;;
58470;SDS011;44258;51.288;12.068;2023-05-02T05:10:23;8.82;;;4.35;;
58470;SDS011;44258;51.288;12.068;2023-05-02T05:12:49;10.48;;;4.97;;
58470;SDS011;44258;51.288;12.068;2023-05-02T05:15:17;11.30;;;5.00;;
58470;SDS011;44258;51.288;12.068;2023-05-02T05:17:46;10.63;;;5.13;;
58470;SDS011;44258;51.288;12.068;2023-05-02T05:20:13;11.75;;;5.25;;
58470;SDS011;44258;51.288;12.068;2023-05-02T05:22:40;12.88;;;5.13;;
58470;SDS011;44258;51.288;12.068;2023-05-02T05:25:09;10.25;;;5.00;;
58470;SDS011;44258;51.288;12.068;2023-05-02T05:27:36;11.45;;;5.35;;
58470;SDS011;44258;51.288;12.068;2023-05-02T05:30:03;11.63;;;5.70;;
58470;SDS011;44258;51.288;12.068;2023-05-02T05:32:31;10.73;;;5.82;;
58470;SDS011;44258;51.288;12.068;2023-05-02T05:34:59;12.70;;;6.30;;
58470;SDS011;44258;51.288;12.068;2023-05-02T05:37:26;10.88;;;5.90;;
58470;SDS011;44258;51.288;12.068;2023-05-02T05:39:53;10.75;;;5.97;;
58470;SDS011;44258;51.288;12.068;2023-05-02T05:42:21;13.85;;;6.40;;
58470;SDS011;44258;51.288;12.068;2023-05-02T05:44:47;12.40;;;6.18;;
58470;SDS011;44258;51.288;12.068;2023-05-02T05:47:17;12.57;;;6.30;;
58470;SDS011;44258;51.288;12.068;2023-05-02T05:49:46;10.68;;;5.57;;
58470;SDS011;44258;51.288;12.068;2023-05-02T05:52:14;12.95;;;5.78;;
58470;SDS011;44258;51.288;12.068;2023-05-02T05:54:40;11.02;;;5.60;;
58470;SDS011;44258;51.288;12.068;2023-05-02T05:57:07;12.00;;;5.65;;
58470;SDS011;44258;51.288;12.068;2023-05-02T05:59:35;12.35;;;5.85;;
58470;SDS011;44258;51.288;12.068;2023-05-02T06:02:02;10.52;;;5.40;;
58470;SDS011;44258;51.288;12.068;2023-05-02T06:04:29;12.73;;;6.13;;
58470;SDS011;44258;51.288;12.068;2023-05-02T06:06:57;11.13;;;6.10;;
58470;SDS011;44258;51.288;12.068;2023-05-02T06:09:25;11.55;;;6.18;;
58470;SDS011;44258;51.288;12.068;2023-05-02T06:11:52;12.95;;;6.07;;
58470;SDS011;44258;51.288;12.068;2023-05-02T06:14:24;11.65;;;4.97;;
58470;SDS011;44258;51.288;12.068;2023-05-02T06:16:52;13.25;;;6.35;;
58470;SDS011;44258;51.288;12.068;2023-05-02T06:19:18;13.88;;;6.32;;
58470;SDS011;44258;51.288;12.068;2023-05-02T06:21:47;13.68;;;6.90;;
58470;SDS011;44258;51.288;12.068;2023-05-02T06:24:14;13.90;;;7.15;;
58470;SDS011;44258;51.288;12.068;2023-05-02T06:26:40;14.05;;;6.90;;
58470;SDS011;44258;51.288;12.068;2023-05-02T06:29:07;12.85;;;6.22;;
58470;SDS011;44258;51.288;12.068;2023-05-02T06:31:34;13.68;;;6.75;;
58470;SDS011;44258;51.288;12.068;2023-05-02T06:34:04;13.85;;;6.65;;
58470;SDS011;44258;51.288;12.068;2023-05-02T06:36:32;13.43;;;7.35;;
58470;SDS011;44258;51.288;12.068;2023-05-02T06:38:59;14.00;;;7.18;;
58470;SDS011;44258;51.288;12.068;2023-05-02T06:41:25;14.25;;;8.00;;
58470;SDS011;44258;51.288;12.068;2023-05-02T06:43:52;15.15;;;7.28;;
58470;SDS011;44258;51.288;12.068;2023-05-02T06:46:27;11.57;;;6.38;;
58470;SDS011;44258;51.288;12.068;2023-05-02T06:48:54;14.75;;;6.60;;
58470;SDS011;44258;51.288;12.068;2023-05-02T06:51:22;13.23;;;6.28;;
58470;SDS011;44258;51.288;12.068;2023-05-02T06:53:49;15.07;;;6.47;;
58470;SDS011;44258;51.288;12.068;2023-05-02T06:56:16;12.52;;;6.28;;
58470;SDS011;44258;51.288;12.068;2023-05-02T06:58:43;14.52;;;6.80;;
58470;SDS011;44258;51.288;12.068;2023-05-02T07:01:11;13.88;;;6.85;;
58470;SDS011;44258;51.288;12.068;2023-05-02T07:03:38;15.88;;;7.25;;
58470;SDS011;44258;51.288;12.068;2023-05-02T07:06:05;16.23;;;6.80;;
58470;SDS011;44258;51.288;12.068;2023-05-02T07:08:33;14.90;;;7.05;;
58470;SDS011;44258;51.288;12.068;2023-05-02T07:11:04;16.65;;;7.32;;
58470;SDS011;44258;51.288;12.068;2023-05-02T07:13:31;19.52;;;7.75;;
58470;SDS011;44258;51.288;12.068;2023-05-02T07:15:58;16.17;;;7.40;;
58470;SDS011;44258;51.288;12.068;2023-05-02T07:18:25;14.10;;;6.95;;
58470;SDS011;44258;51.288;12.068;2023-05-02T07:20:52;14.18;;;6.70;;
58470;SDS011;44258;51.288;12.068;2023-05-02T07:23:19;13.68;;;7.15;;
58470;SDS011;44258;51.288;12.068;2023-05-02T07:25:47;13.35;;;6.70;;
58470;SDS011;44258;51.288;12.068;2023-05-02T07:28:14;16.35;;;7.45;;
58470;SDS011;44258;51.288;12.068;2023-05-02T07:30:40;14.45;;;7.15;;
58470;SDS011;44258;51.288;12.068;2023-05-02T07:33:07;18.48;;;7.40;;
58470;SDS011;44258;51.288;12.068;2023-05-02T07:35:34;16.55;;;8.10;;
58470;SDS011;44258;51.288;12.068;2023-05-02T07:38:01;17.80;;;8.68;;
58470;SDS011;44258;51.288;12.068;2023-05-02T07:40:30;18.70;;;9.23;;
58470;SDS011;44258;51.288;12.068;2023-05-02T07:42:58;17.52;;;9.35;;
58470;SDS011;44258;51.288;12.068;2023-05-02T07:45:26;22.17;;;9.90;;
58470;SDS011;44258;51.288;12.068;2023-05-02T07:47:52;18.33;;;9.60;;
58470;SDS011;44258;51.288;12.068;2023-05-02T07:50:19;20.00;;;10.32;;
58470;SDS011;44258;51.288;12.068;2023-05-02T07:52:46;21.30;;;11.20;;
58470;SDS011;44258;51.288;12.068;2023-05-02T07:55:13;19.42;;;10.02;;
58470;SDS011;44258;51.288;12.068;2023-05-02T07:57:41;22.42;;;10.85;;
58470;SDS011;44258;51.288;12.068;2023-05-02T08:00:11;22.73;;;11.40;;
58470;SDS011;44258;51.288;12.068;2023-05-02T08:02:39;21.20;;;10.55;;
58470;SDS011;44258;51.288;12.068;2023-05-02T08:05:06;24.08;;;11.65;;
58470;SDS011;44258;51.288;12.068;2023-05-02T08:07:34;21.42;;;11.20;;
58470;SDS011;44258;51.288;12.068;2023-05-02T08:10:01;23.38;;;11.40;;
58470;SDS011;44258;51.288;12.068;2023-05-02T08:12:28;28.58;;;13.07;;
58470;SDS011;44258;51.288;12.068;2023-05-02T08:14:55;22.10;;;12.23;;
58470;SDS011;44258;51.288;12.068;2023-05-02T08:17:22;24.63;;;12.18;;
58470;SDS011;44258;51.288;12.068;2023-05-02T08:19:51;23.80;;;11.52;;
58470;SDS011;44258;51.288;12.068;2023-05-02T08:22:18;23.60;;;11.48;;
58470;SDS011;44258;51.288;12.068;2023-05-02T08:24:45;26.95;;;13.20;;
58470;SDS011;44258;51.288;12.068;2023-05-02T08:27:11;24.08;;;12.30;;
58470;SDS011;44258;51.288;12.068;2023-05-02T08:29:38;24.63;;;12.68;;
58470;SDS011;44258;51.288;12.068;2023-05-02T08:32:04;23.98;;;12.35;;
58470;SDS011;44258;51.288;12.068;2023-05-02T08:34:33;24.40;;;11.90;;
58470;SDS011;44258;51.288;12.068;2023-05-02T08:39:33;25.92;;;11.75;;
58470;SDS011;44258;51.288;12.068;2023-05-02T08:42:04;22.90;;;12.50;;
58470;SDS011;44258;51.288;12.068;2023-05-02T08:44:32;22.42;;;11.73;;
58470;SDS011;44258;51.288;12.068;2023-05-02T08:47:01;23.27;;;11.20;;
58470;SDS011;44258;51.288;12.068;2023-05-02T08:49:33;22.52;;;11.90;;
58470;SDS011;44258;51.288;12.068;2023-05-02T08:52:01;24.90;;;12.30;;
58470;SDS011;44258;51.288;12.068;2023-05-02T08:54:29;27.15;;;13.60;;
58470;SDS011;44258;51.288;12.068;2023-05-02T08:57:08;26.83;;;12.52;;
58470;SDS011;44258;51.288;12.068;2023-05-02T08:59:35;26.60;;;12.02;;
58470;SDS011;44258;51.288;12.068;2023-05-02T09:02:03;25.75;;;12.77;;
58470;SDS011;44258;51.288;12.068;2023-05-02T09:04:39;24.70;;;11.63;;
58470;SDS011;44258;51.288;12.068;2023-05-02T09:07:07;27.48;;;11.90;;
58470;SDS011;44258;51.288;12.068;2023-05-02T09:09:34;22.45;;;11.90;;
58470;SDS011;44258;51.288;12.068;2023-05-02T09:12:01;27.27;;;12.60;;
58470;SDS011;44258;51.288;12.068;2023-05-02T09:14:30;24.75;;;11.85;;
58470;SDS011;44258;51.288;12.068;2023-05-02T09:16:57;23.00;;;11.80;;
58470;SDS011;44258;51.288;12.068;2023-05-02T09:19:25;23.75;;;11.15;;
58470;SDS011;44258;51.288;12.068;2023-05-02T09:21:57;22.23;;;10.88;;
58470;SDS011;44258;51.288;12.068;2023-05-02T09:24:26;23.48;;;10.95;;
58470;SDS011;44258;51.288;12.068;2023-05-02T09:26:55;20.73;;;9.90;;
58470;SDS011;44258;51.288;12.068;2023-05-02T09:29:23;20.35;;;10.20;;
58470;SDS011;44258;51.288;12.068;2023-05-02T09:31:50;22.00;;;11.25;;
58470;SDS011;44258;51.288;12.068;2023-05-02T09:34:17;24.23;;;11.43;;
58470;SDS011;44258;51.288;12.068;2023-05-02T09:36:44;24.40;;;11.90;;
58470;SDS011;44258;51.288;12.068;2023-05-02T09:39:17;20.70;;;10.55;;
58470;SDS011;44258;51.288;12.068;2023-05-02T09:42:38;22.10;;;9.80;;
58470;SDS011;44258;51.288;12.068;2023-05-02T09:45:05;19.13;;;9.25;;
58470;SDS011;44258;51.288;12.068;2023-05-02T09:47:32;18.90;;;8.38;;
58470;SDS011;44258;51.288;12.068;2023-05-02T09:49:59;18.95;;;9.52;;
58470;SDS011;44258;51.288;12.068;2023-05-02T09:52:28;21.35;;;9.75;;
58470;SDS011;44258;51.288;12.068;2023-05-02T09:54:56;17.65;;;8.82;;
58470;SDS011;44258;51.288;12.068;2023-05-02T09:57:33;17.27;;;8.45;;
58470;SDS011;44258;51.288;12.068;2023-05-02T10:00:08;18.25;;;8.75;;
58470;SDS011;44258;51.288;12.068;2023-05-02T10:02:35;17.65;;;7.75;;
58470;SDS011;44258;51.288;12.068;2023-05-02T10:05:05;16.38;;;7.60;;
58470;SDS011;44258;51.288;12.068;2023-05-02T10:07:35;15.50;;;7.25;;
58470;SDS011;44258;51.288;12.068;2023-05-02T10:10:06;16.92;;;7.35;;
58470;SDS011;44258;51.288;12.068;2023-05-02T10:12:37;15.63;;;6.65;;
58470;SDS011;44258;51.288;12.068;2023-05-02T10:15:05;15.25;;;6.78;;
58470;SDS011;44258;51.288;12.068;2023-05-02T10:17:39;13.20;;;6.28;;
58470;SDS011;44258;51.288;12.068;2023-05-02T10:20:11;14.55;;;6.85;;
58470;SDS011;44258;51.288;12.068;2023-05-02T10:22:44;14.15;;;7.05;;
58470;SDS011;44258;51.288;12.068;2023-05-02T10:25:17;16.98;;;7.40;;
58470;SDS011;44258;51.288;12.068;2023-05-02T10:27:44;14.40;;;7.30;;
58470;SDS011;44258;51.288;12.068;2023-05-02T10:30:12;15.40;;;6.40;;
58470;SDS011;44258;51.288;12.068;2023-05-02T10:32:40;11.90;;;5.43;;
58470;SDS011;44258;51.288;12.068;2023-05-02T10:35:08;13.35;;;5.30;;
58470;SDS011;44258;51.288;12.068;2023-05-02T10:37:35;10.25;;;5.15;;
58470;SDS011;44258;51.288;12.068;2023-05-02T10:40:07;11.75;;;5.30;;
58470;SDS011;44258;51.288;12.068;2023-05-02T10:42:37;12.07;;;5.55;;
58470;SDS011;44258;51.288;12.068;2023-05-02T10:45:10;17.35;;;6.47;;
58470;SDS011;44258;51.288;12.068;2023-05-02T10:47:38;12.88;;;5.60;;
58470;SDS011;44258;51.288;12.068;2023-05-02T10:50:06;11.85;;;5.38;;
58470;SDS011;44258;51.288;12.068;2023-05-02T10:52:34;11.32;;;5.40;;
58470;SDS011;44258;51.288;12.068;2023-05-02T10:55:15;12.60;;;5.85;;
58470;SDS011;44258;51.288;12.068;2023-05-02T11:00:48;12.73;;;6.50;;
58470;SDS011;44258;51.288;12.068;2023-05-02T11:03:20;13.07;;;6.20;;
58470;SDS011;44258;51.288;12.068;2023-05-02T11:06:20;12.55;;;5.88;;
58470;SDS011;44258;51.288;12.068;2023-05-02T11:08:47;12.90;;;5.63;;
58470;SDS011;44258;51.288;12.068;2023-05-02T11:14:07;11.23;;;4.53;;
58470;SDS011;44258;51.288;12.068;2023-05-02T11:17:04;9.73;;;4.80;;
58470;SDS011;44258;51.288;12.068;2023-05-02T11:22:31;10.98;;;4.40;;
58470;SDS011;44258;51.288;12.068;2023-05-02T11:25:01;10.63;;;4.53;;
58470;SDS011;44258;51.288;12.068;2023-05-02T11:27:35;8.38;;;3.08;;
58470;SDS011;44258;51.288;12.068;2023-05-02T11:30:05;7.35;;;3.53;;
58470;SDS011;44258;51.288;12.068;2023-05-02T11:35:40;11.13;;;4.22;;
58470;SDS011;44258;51.288;12.068;2023-05-02T11:38:13;12.02;;;4.47;;
58470;SDS011;44258;51.288;12.068;2023-05-02T11:40:48;8.60;;;4.00;;
58470;SDS011;44258;51.288;12.068;2023-05-02T11:43:19;9.07;;;4.22;;
58470;SDS011;44258;51.288;12.068;2023-05-02T11:45:48;10.15;;;4.40;;
58470;SDS011;44258;51.288;12.068;2023-05-02T11:48:16;9.93;;;4.30;;
58470;SDS011;44258;51.288;12.068;2023-05-02T11:50:44;9.65;;;3.97;;
58470;SDS011;44258;51.288;12.068;2023-05-02T11:53:12;8.57;;;4.05;;
58470;SDS011;44258;51.288;12.068;2023-05-02T11:55:45;9.70;;;4.65;;
58470;SDS011;44258;51.288;12.068;2023-05-02T11:58:12;11.75;;;5.55;;
58470;SDS011;44258;51.288;12.068;2023-05-02T12:00:41;9.25;;;4.28;;
58470;SDS011;44258;51.288;12.068;2023-05-02T12:03:28;11.00;;;5.22;;
58470;SDS011;44258;51.288;12.068;2023-05-02T12:05:57;10.67;;;4.80;;
58470;SDS011;44258;51.288;12.068;2023-05-02T12:08:34;10.98;;;4.93;;
58470;SDS011;44258;51.288;12.068;2023-05-02T12:11:01;10.40;;;5.03;;
58470;SDS011;44258;51.288;12.068;2023-05-02T12:13:30;10.65;;;4.95;;
58470;SDS011;44258;51.288;12.068;2023-05-02T12:15:57;9.77;;;5.13;;
58470;SDS011;44258;51.288;12.068;2023-05-02T12:18:24;10.73;;;5.00;;
58470;SDS011;44258;51.288;12.068;2023-05-02T12:20:52;12.48;;;5.32;;
58470;SDS011;44258;51.288;12.068;2023-05-02T12:23:21;10.93;;;5.00;;
58470;SDS011;44258;51.288;12.068;2023-05-02T12:25:50;12.15;;;5.68;;
58470;SDS011;44258;51.288;12.068;2023-05-02T12:28:17;11.95;;;5.25;;
58470;SDS011;44258;51.288;12.068;2023-05-02T12:30:48;13.23;;;5.22;;
58470;SDS011;44258;51.288;12.068;2023-05-02T12:33:16;10.98;;;5.55;;
58470;SDS011;44258;51.288;12.068;2023-05-02T12:35:43;10.77;;;5.40;;
58470;SDS011;44258;51.288;12.068;2023-05-02T12:38:14;9.48;;;4.80;;
58470;SDS011;44258;51.288;12.068;2023-05-02T12:40:45;11.82;;;5.00;;
58470;SDS011;44258;51.288;12.068;2023-05-02T12:43:15;10.45;;;5.35;;
58470;SDS011;44258;51.288;12.068;2023-05-02T12:45:43;11.90;;;5.60;;
58470;SDS011;44258;51.288;12.068;2023-05-02T12:48:22;10.52;;;5.60;;
58470;SDS011;44258;51.288;12.068;2023-05-02T12:50:53;12.40;;;5.57;;
58470;SDS011;44258;51.288;12.068;2023-05-02T12:53:40;12.18;;;4.90;;
58470;SDS011;44258;51.288;12.068;2023-05-02T12:56:08;10.23;;;4.82;;
58470;SDS011;44258;51.288;12.068;2023-05-02T12:58:41;11.23;;;5.63;;
58470;SDS011;44258;51.288;12.068;2023-05-02T13:01:10;10.50;;;4.80;;
58470;SDS011;44258;51.288;12.068;2023-05-02T13:03:37;11.32;;;5.00;;
58470;SDS011;44258;51.288;12.068;2023-05-02T13:06:04;9.77;;;4.25;;
58470;SDS011;44258;51.288;12.068;2023-05-02T13:08:31;10.90;;;4.60;;
58470;SDS011;44258;51.288;12.068;2023-05-02T13:11:02;9.80;;;4.15;;
58470;SDS011;44258;51.288;12.068;2023-05-02T13:13:29;10.35;;;4.40;;
58470;SDS011;44258;51.288;12.068;2023-05-02T13:15:56;8.93;;;4.03;;
58470;SDS011;44258;51.288;12.068;2023-05-02T13:18:23;10.38;;;4.13;;
58470;SDS011;44258;51.288;12.068;2023-05-02T13:20:52;10.27;;;4.50;;
58470;SDS011;44258;51.288;12.068;2023-05-02T13:23:19;11.57;;;4.57;;
58470;SDS011;44258;51.288;12.068;2023-05-02T13:25:45;12.50;;;4.55;;
58470;SDS011;44258;51.288;12.068;2023-05-02T13:28:13;13.05;;;4.50;;
58470;SDS011;44258;51.288;12.068;2023-05-02T13:30:40;13.23;;;5.05;;
58470;SDS011;44258;51.288;12.068;2023-05-02T13:33:06;13.35;;;5.35;;
58470;SDS011;44258;51.288;12.068;2023-05-02T13:35:33;14.90;;;5.60;;
58470;SDS011;44258;51.288;12.068;2023-05-02T13:37:59;12.82;;;6.22;;
58470;SDS011;44258;51.288;12.068;2023-05-02T13:40:26;11.77;;;5.78;;
58470;SDS011;44258;51.288;12.068;2023-05-02T13:42:52;13.98;;;5.72;;
58470;SDS011;44258;51.288;12.068;2023-05-02T13:45:20;13.43;;;6.05;;
58470;SDS011;44258;51.288;12.068;2023-05-02T13:47:47;14.52;;;6.07;;
58470;SDS011;44258;51.288;12.068;2023-05-02T13:50:13;12.38;;;5.03;;
58470;SDS011;44258;51.288;12.068;2023-05-02T13:52:40;14.75;;;5.88;;
58470;SDS011;44258;51.288;12.068;2023-05-02T13:55:07;13.90;;;6.38;;
58470;SDS011;44258;51.288;12.068;2023-05-02T13:57:34;14.48;;;5.78;;
58470;SDS011;44258;51.288;12.068;2023-05-02T14:00:01;15.65;;;6.35;;
58470;SDS011;44258;51.288;12.068;2023-05-02T14:02:29;13.25;;;5.68;;
58470;SDS011;44258;51.288;12.068;2023-05-02T14:04:56;14.07;;;6.18;;
58470;SDS011;44258;51.288;12.068;2023-05-02T14:07:22;11.40;;;4.78;;
58470;SDS011;44258;51.288;12.068;2023-05-02T14:09:49;13.13;;;5.15;;
58470;SDS011;44258;51.288;12.068;2023-05-02T14:12:16;16.50;;;5.97;;
58470;SDS011;44258;51.288;12.068;2023-05-02T14:14:42;16.35;;;5.88;;
58470;SDS011;44258;51.288;12.068;2023-05-02T14:17:09;13.90;;;5.40;;
58470;SDS011;44258;51.288;12.068;2023-05-02T14:19:37;12.85;;;4.22;;
58470;SDS011;44258;51.288;12.068;2023-05-02T14:22:05;11.88;;;5.07;;
58470;SDS011;44258;51.288;12.068;2023-05-02T14:24:32;14.27;;;5.90;;
58470;SDS011;44258;51.288;12.068;2023-05-02T14:27:00;13.60;;;4.93;;
58470;SDS011;44258;51.288;12.068;2023-05-02T14:29:28;13.40;;;5.35;;
58470;SDS011;44258;51.288;12.068;2023-05-02T14:31:55;10.75;;;4.82;;
58470;SDS011;44258;51.288;12.068;2023-05-02T14:34:22;12.27;;;4.97;;
58470;SDS011;44258;51.288;12.068;2023-05-02T14:36:52;11.05;;;4.60;;
58470;SDS011;44258;51.288;12.068;2023-05-02T14:39:18;14.20;;;5.05;;
58470;SDS011;44258;51.288;12.068;2023-05-02T14:41:45;13.40;;;5.30;;
58470;SDS011;44258;51.288;12.068;2023-05-02T14:44:12;13.00;;;4.97;;
58470;SDS011;44258;51.288;12.068;2023-05-02T14:46:38;10.77;;;4.53;;
58470;SDS011;44258;51.288;12.068;2023-05-02T14:49:05;9.88;;;3.78;;